createdAt,value
2017-12-27T02:41:01.023Z,96252.69
2017-12-27T02:43:37.166Z,96252.02
2017-12-27T02:46:11.189Z,96239.03
2017-12-27T02:48:56.024Z,96232.56
2017-12-27T02:51:49.508Z,96221.69
2017-12-27T02:57:26.676Z,96217.39
2017-12-27T02:59:57.655Z,96203.67
2017-12-27T03:02:30.855Z,96205.78
2017-12-27T03:07:58.356Z,96197.17
2017-12-27T03:10:39.746Z,96214.56
2017-12-27T03:13:12.582Z,96206.45
2017-12-27T03:16:06.329Z,96198.80
2017-12-27T03:18:38.520Z,96190.36
2017-12-27T03:21:13.435Z,96182.55
2017-12-27T03:23:48.409Z,96174.73
2017-12-27T03:26:52.129Z,96159.08
2017-12-27T03:29:27.422Z,96169.59
2017-12-27T03:32:00.087Z,96166.38
2017-12-27T03:34:34.282Z,96161.66
2017-12-27T03:37:11.709Z,96147.33
2017-12-27T03:39:43.457Z,96152.02
2017-12-27T03:42:18.184Z,96139.95
2017-12-27T03:44:54.442Z,96135.02
2017-12-27T03:47:31.828Z,96138.82
2017-12-27T03:50:08.200Z,96136.34
2017-12-27T03:52:41.534Z,96128.91
2017-12-27T03:55:14.948Z,96138.89
2017-12-27T03:57:47.431Z,96136.67
2017-12-27T04:00:27.385Z,96132.34
2017-12-27T04:06:11.960Z,96113.47
2017-12-27T04:08:46.406Z,96115.32
2017-12-27T04:11:17.805Z,96100.73
2017-12-27T04:13:50.958Z,96100.23
2017-12-27T04:16:22.585Z,96092.95
2017-12-27T04:19:01.353Z,96087.83
2017-12-27T04:21:33.522Z,96079.11
2017-12-27T04:24:06.629Z,96085.23
2017-12-27T04:26:37.358Z,96067.63
2017-12-27T04:29:07.848Z,96057.16
2017-12-27T04:31:38.444Z,96055.33
2017-12-27T04:34:10.225Z,96061.63
2017-12-27T04:36:40.535Z,96042.78
2017-12-27T04:39:12.123Z,96060.02
2017-12-27T04:41:42.353Z,96057.07
2017-12-27T04:44:17.752Z,96048.27
2017-12-27T04:46:48.487Z,96048.98
2017-12-27T04:49:20.900Z,96048.98
2017-12-27T04:52:06.905Z,96042.36
2017-12-27T04:54:37.627Z,96040.55
2017-12-27T04:57:12.472Z,96028.70
2017-12-27T04:59:44.971Z,96027.59
2017-12-27T05:02:15.987Z,96032.13
2017-12-27T05:04:50.423Z,96041.58
2017-12-27T05:07:28.270Z,96034.66
2017-12-27T05:10:00.591Z,96035.00
2017-12-27T05:12:31.283Z,96030.33
2017-12-27T05:15:05.459Z,96040.22
2017-12-27T05:18:37.759Z,96034.59
2017-12-27T05:21:11.111Z,96030.17
2017-12-27T05:23:47.541Z,96026.66
2017-12-27T05:26:28.509Z,96028.73
2017-12-27T05:28:58.436Z,96025.58
2017-12-27T05:31:29.591Z,96036.42
2017-12-27T05:34:01.684Z,96027.31
2017-12-27T05:36:35.562Z,96029.44
2017-12-27T05:41:52.905Z,96022.25
2017-12-27T05:44:25.286Z,96021.95
2017-12-27T05:46:58.134Z,96011.50
2017-12-27T05:49:29.838Z,96020.97
2017-12-27T05:52:02.258Z,96015.84
2017-12-27T05:54:35.993Z,96010.94
2017-12-27T05:57:13.183Z,96017.46
2017-12-27T05:59:45.061Z,96024.38
2017-12-27T06:02:17.316Z,96021.20
2017-12-27T06:04:49.004Z,96005.30
2017-12-27T06:07:22.061Z,95992.09
2017-12-27T06:12:31.256Z,95986.10
2017-12-27T06:15:02.848Z,95993.28
2017-12-27T06:17:33.349Z,95987.67
2017-12-27T06:20:03.404Z,95984.83
2017-12-27T06:22:38.307Z,95971.47
2017-12-27T06:25:17.134Z,95963.31
2017-12-27T06:27:50.134Z,95975.17
2017-12-27T06:30:26.536Z,95956.09
2017-12-27T06:32:58.346Z,95962.52
2017-12-27T06:35:32.435Z,95960.28
2017-12-27T06:38:04.978Z,95955.17
2017-12-27T06:40:37.056Z,95948.86
2017-12-27T06:43:12.031Z,95946.52
2017-12-27T06:45:51.944Z,95946.67
2017-12-27T07:10:25.698Z,95942.64
2017-12-27T07:13:03.100Z,95954.88
2017-12-27T07:15:34.528Z,95945.59
2017-12-27T07:18:12.002Z,95935.47
2017-12-27T07:20:52.100Z,95933.11
2017-12-27T07:23:30.863Z,95930.13
2017-12-27T07:26:00.905Z,95935.79
2017-12-27T07:28:31.830Z,95922.10
2017-12-27T07:31:02.643Z,95931.75
2017-12-27T07:33:36.174Z,95925.30
2017-12-27T07:36:09.228Z,95921.14
2017-12-27T07:39:25.296Z,95926.09
2017-12-27T07:49:11.766Z,95903.79
2017-12-27T07:51:54.400Z,95897.72
2017-12-27T07:54:30.162Z,95897.42
2017-12-27T07:57:03.201Z,95901.29
2017-12-27T07:59:36.002Z,95891.28
2017-12-27T08:02:09.811Z,95892.86
2017-12-27T08:04:41.217Z,95883.27
2017-12-27T08:07:12.340Z,95883.37
2017-12-27T08:09:44.699Z,95887.52
2017-12-27T08:12:16.342Z,95892.30
2017-12-27T08:18:37.269Z,95882.14
2017-12-27T08:21:08.144Z,95889.68
2017-12-27T08:24:23.730Z,95880.53
2017-12-27T13:55:40.221Z,95380.59
2017-12-27T13:58:10.113Z,95371.36
2017-12-27T14:00:41.493Z,95376.19
2017-12-27T14:03:11.296Z,95385.48
2017-12-27T14:05:43.661Z,95382.70
2017-12-27T14:08:13.415Z,95395.52
2017-12-27T14:10:43.111Z,95381.67
2017-12-27T14:13:13.154Z,95384.08
2017-12-27T14:15:45.521Z,95386.84
2017-12-27T14:18:15.042Z,95388.05
2017-12-27T14:20:44.836Z,95385.44
2017-12-27T14:23:14.446Z,95378.52
2017-12-27T14:25:44.093Z,95378.82
2017-12-27T14:28:14.556Z,95372.30
2017-12-27T14:30:44.520Z,95372.74
2017-12-27T14:33:14.950Z,95371.64
2017-12-27T14:35:44.832Z,95363.98
2017-12-27T14:38:14.529Z,95365.70
2017-12-27T14:40:44.459Z,95365.09
2017-12-27T14:43:13.920Z,95355.05
2017-12-27T14:45:43.893Z,95357.17
2017-12-27T14:48:13.480Z,95347.52
2017-12-27T14:50:42.952Z,95351.48
2017-12-27T14:53:12.708Z,95348.59
2017-12-27T14:55:43.944Z,95332.27
2017-12-27T14:58:25.648Z,95329.22
2017-12-27T15:00:55.120Z,95322.27
2017-12-27T15:03:24.674Z,95313.59
2017-12-27T15:05:54.138Z,95310.88
2017-12-27T15:08:23.839Z,95300.44
2017-12-27T15:10:53.876Z,95285.55
2017-12-27T15:13:23.510Z,95283.55
2017-12-27T15:15:53.373Z,95278.27
2017-12-27T15:18:31.953Z,95274.48
2017-12-27T15:21:02.491Z,95273.91
2017-12-27T15:23:36.430Z,95271.42
2017-12-27T15:26:14.687Z,95270.43
2017-12-27T15:28:53.475Z,95269.02
2017-12-27T15:31:31.599Z,95270.70
2017-12-27T15:34:08.181Z,95257.59
2017-12-27T15:36:43.927Z,95249.98
2017-12-27T15:39:19.837Z,95243.78
2017-12-27T15:42:14.277Z,95240.45
2017-12-27T15:45:01.204Z,95239.87
2017-12-27T15:47:39.001Z,95241.36
2017-12-27T15:50:18.711Z,95246.11
2017-12-27T15:53:06.713Z,95245.48
2017-12-27T15:56:02.738Z,95243.95
2017-12-27T15:59:27.962Z,95238.58
2017-12-27T16:02:04.838Z,95242.27
2017-12-27T16:04:38.179Z,95234.58
2017-12-27T16:07:28.576Z,95229.70
2017-12-27T16:10:03.543Z,95237.33
2017-12-27T16:12:37.033Z,95229.83
2017-12-27T16:15:07.991Z,95231.33
2017-12-27T16:17:40.585Z,95229.17
2017-12-27T16:20:30.955Z,95230.88
2017-12-27T16:23:00.515Z,95234.06
2017-12-27T16:25:48.575Z,95234.43
2017-12-27T16:28:22.201Z,95224.51
2017-12-27T16:30:55.964Z,95230.59
2017-12-27T16:33:53.434Z,95232.44
2017-12-27T16:36:27.782Z,95216.67
2017-12-27T16:39:02.236Z,95219.94
2017-12-27T16:41:35.969Z,95216.84
2017-12-27T16:44:08.815Z,95207.86
2017-12-27T16:46:50.847Z,95200.03
2017-12-27T16:49:25.478Z,95194.59
2017-12-27T16:52:01.021Z,95186.09
2017-12-27T16:54:37.028Z,95175.89
2017-12-27T16:57:13.555Z,95167.05
2017-12-27T16:59:49.428Z,95157.70
2017-12-27T17:02:22.436Z,95161.56
2017-12-27T17:04:58.080Z,95153.08
2017-12-27T17:07:35.385Z,95149.03
2017-12-27T17:10:12.244Z,95145.32
2017-12-27T17:12:45.780Z,95141.05
2017-12-27T17:15:18.348Z,95127.94
2017-12-27T17:17:51.859Z,95130.52
2017-12-27T17:20:22.921Z,95122.06
2017-12-27T17:22:57.511Z,95114.87
2017-12-27T17:25:28.257Z,95114.80
2017-12-27T17:28:04.371Z,95105.68
2017-12-27T17:30:44.920Z,95108.61
2017-12-27T17:33:18.167Z,95099.14
2017-12-27T17:35:52.541Z,95101.02
2017-12-27T17:38:27.559Z,95096.84
2017-12-27T17:41:00.923Z,95095.20
2017-12-27T17:43:31.482Z,95083.00
2017-12-27T17:46:06.340Z,95091.08
2017-12-27T17:51:31.917Z,95090.15
2017-12-27T17:54:11.057Z,95083.95
2017-12-27T17:56:46.971Z,95075.51
2017-12-27T17:59:18.239Z,95076.27
2017-12-27T18:01:55.471Z,95068.50
2017-12-27T18:04:27.115Z,95062.66
2017-12-27T18:06:57.640Z,95059.19
2017-12-27T18:09:28.362Z,95053.43
2017-12-27T18:12:03.307Z,95047.64
2017-12-27T18:14:39.676Z,95049.39
2017-12-27T18:17:12.150Z,95045.34
2017-12-27T18:19:46.382Z,95032.64
2017-12-27T18:22:18.251Z,95036.45
2017-12-27T18:24:54.488Z,95034.04
2017-12-27T18:27:26.896Z,95027.51
2017-12-27T18:30:12.671Z,95017.61
2017-12-27T18:32:51.695Z,95020.16
2017-12-27T18:35:34.962Z,95018.88
2017-12-27T18:46:28.284Z,95015.23
2017-12-27T18:49:18.143Z,95010.32
2017-12-27T18:51:55.845Z,95002.45
2017-12-27T18:54:27.947Z,95003.77
2017-12-27T18:57:01.017Z,95005.91
2017-12-27T18:59:32.604Z,94998.03
2017-12-27T19:02:06.299Z,95000.10
2017-12-27T19:04:41.493Z,94995.13
2017-12-27T19:07:12.308Z,94988.91
2017-12-27T19:09:44.960Z,94987.67
2017-12-27T19:12:15.479Z,94999.74
2017-12-27T19:14:48.275Z,94992.94
2017-12-27T19:17:26.975Z,94992.44
2017-12-27T19:19:58.078Z,94989.67
2017-12-27T19:22:36.814Z,94983.20
2017-12-27T19:25:11.000Z,94991.54
2017-12-27T19:27:42.327Z,94981.95
2017-12-27T19:30:15.960Z,94982.83
2017-12-27T19:32:48.457Z,94977.81
2017-12-27T19:35:21.962Z,94978.30
2017-12-27T19:37:55.009Z,94978.78
2017-12-27T19:40:26.376Z,94981.52
2017-12-27T19:43:00.396Z,94977.20
2017-12-27T19:45:31.998Z,94974.52
2017-12-27T19:48:06.298Z,94970.41
2017-12-27T19:50:40.302Z,94962.06
2017-12-27T19:53:13.057Z,94956.28
2017-12-27T19:55:48.015Z,94957.85
2017-12-27T19:58:21.354Z,94945.47
2017-12-27T20:00:52.206Z,94948.57
2017-12-27T20:03:31.935Z,94941.05
2017-12-27T20:06:54.807Z,94944.91
2017-12-27T20:10:19.558Z,94943.74
2017-12-27T20:12:51.820Z,94948.91
2017-12-27T20:15:26.231Z,94946.83
2017-12-27T20:17:59.501Z,94937.14
2017-12-27T20:20:32.530Z,94935.19
2017-12-27T20:23:08.512Z,94928.94
2017-12-27T20:25:41.695Z,94935.40
2017-12-27T20:28:18.119Z,94929.39
2017-12-27T20:31:00.713Z,94926.23
2017-12-27T20:33:38.128Z,94930.42
2017-12-27T20:36:11.061Z,94928.55
2017-12-27T20:38:46.369Z,94918.29
2017-12-27T20:41:21.012Z,94911.34
2017-12-27T20:43:52.506Z,94913.27
2017-12-27T20:46:29.628Z,94913.82
2017-12-27T20:51:44.393Z,94900.12
2017-12-27T20:54:19.347Z,94906.33
2017-12-27T20:57:01.104Z,94905.19
2017-12-27T21:06:59.831Z,94897.84
2017-12-27T21:09:35.794Z,94892.52
2017-12-27T21:12:09.331Z,94882.28
2017-12-27T21:14:41.720Z,94889.96
2017-12-27T21:17:17.819Z,94887.64
2017-12-27T21:22:55.183Z,94886.48
2017-12-27T21:25:25.543Z,94880.39
2017-12-27T21:28:23.582Z,94871.64
2017-12-27T21:30:56.262Z,94866.55
2017-12-27T21:33:28.406Z,94872.56
2017-12-27T21:35:58.063Z,94874.59
2017-12-27T21:38:31.476Z,94879.27
2017-12-27T21:41:02.850Z,94867.78
2017-12-27T21:43:36.543Z,94865.44
2017-12-27T21:46:11.415Z,94862.53
2017-12-27T21:48:47.831Z,94872.72
2017-12-27T21:51:22.263Z,94870.73
2017-12-27T21:53:55.064Z,94861.45
2017-12-27T21:56:25.146Z,94868.73
2017-12-27T21:59:09.728Z,94861.95
2017-12-27T22:01:47.210Z,94863.58
2017-12-27T22:04:19.579Z,94859.59
2017-12-27T22:06:52.871Z,94853.19
2017-12-27T22:09:25.032Z,94856.98
2017-12-27T22:15:33.803Z,94866.08
2017-12-27T22:18:06.177Z,94865.34
2017-12-27T22:20:43.538Z,94855.27
2017-12-27T22:23:16.568Z,94852.28
2017-12-27T22:25:47.956Z,94851.27
2017-12-27T22:28:27.584Z,94852.80
2017-12-27T22:31:02.421Z,94844.67
2017-12-27T22:33:38.053Z,94853.26
2017-12-27T22:36:10.501Z,94847.00
2017-12-27T22:38:42.147Z,94846.23
2017-12-27T22:41:12.450Z,94841.42
2017-12-27T22:43:56.387Z,94839.23
2017-12-27T22:46:49.219Z,94844.72
2017-12-27T22:49:20.007Z,94838.86
2017-12-27T22:51:56.888Z,94834.34
2017-12-27T22:55:27.111Z,94832.87
2017-12-27T22:58:37.254Z,94827.80
2017-12-27T23:01:13.893Z,94825.66
2017-12-27T23:03:46.209Z,94815.55
2017-12-27T23:14:03.479Z,94810.20
2017-12-27T23:16:42.031Z,94803.27
2017-12-27T23:19:42.820Z,94802.91
2017-12-27T23:22:49.742Z,94804.77
2017-12-27T23:29:41.132Z,94792.22
2017-12-27T23:40:37.922Z,94767.96
2017-12-27T23:43:15.454Z,94768.56
2017-12-27T23:45:56.211Z,94767.54
2017-12-27T23:48:35.963Z,94766.59
2017-12-27T23:51:06.892Z,94760.45
2017-12-27T23:53:44.351Z,94753.95
2017-12-27T23:57:16.719Z,94753.45
2017-12-27T23:59:52.593Z,94749.78
